sensor_id;sensor_type;location;lat;lon;timestamp;pressure;altitude;pressure_sealevel;temperature;humidity
46944;BME280;32678;43.852;25.952;2023-11-18T00:02:01;100298.63;;;9.91;93.06
46944;BME280;32678;43.852;25.952;2023-11-18T00:06:58;100298.19;;;10.02;93.06
46944;BME280;32678;43.852;25.952;2023-11-18T00:12:01;100288.00;;;10.18;92.57
46944;BME280;32678;43.852;25.952;2023-11-18T00:16:59;100296.16;;;10.10;91.44
46944;BME280;32678;43.852;25.952;2023-11-18T00:22:03;100298.50;;;10.18;92.35
46944;BME280;32678;43.852;25.952;2023-11-18T00:27:00;100283.91;;;10.11;92.28
46944;BME280;32678;43.852;25.952;2023-11-18T00:32:01;100278.66;;;9.87;93.07
46944;BME280;32678;43.852;25.952;2023-11-18T00:37:00;100279.47;;;9.89;92.29
46944;BME280;32678;43.852;25.952;2023-11-18T00:41:58;100296.66;;;9.73;93.04
46944;BME280;32678;43.852;25.952;2023-11-18T00:46:54;100299.22;;;9.75;93.84
46944;BME280;32678;43.852;25.952;2023-11-18T00:51:53;100297.47;;;9.75;93.33
46944;BME280;32678;43.852;25.952;2023-11-18T00:56:50;100282.41;;;9.82;92.36
46944;BME280;32678;43.852;25.952;2023-11-18T01:01:47;100286.09;;;9.76;92.41
46944;BME280;32678;43.852;25.952;2023-11-18T01:06:46;100288.63;;;9.78;92.49
46944;BME280;32678;43.852;25.952;2023-11-18T01:11:44;100288.22;;;9.88;92.16
46944;BME280;32678;43.852;25.952;2023-11-18T01:17:03;100293.81;;;9.79;91.51
46944;BME280;32678;43.852;25.952;2023-11-18T01:22:00;100295.34;;;9.62;92.78
46944;BME280;32678;43.852;25.952;2023-11-18T01:27:01;100281.72;;;9.77;92.27
46944;BME280;32678;43.852;25.952;2023-11-18T01:31:58;100288.81;;;9.96;92.16
46944;BME280;32678;43.852;25.952;2023-11-18T01:36:56;100294.28;;;9.90;90.21
46944;BME280;32678;43.852;25.952;2023-11-18T01:41:53;100268.53;;;9.78;91.46
46944;BME280;32678;43.852;25.952;2023-11-18T01:46:49;100260.28;;;9.89;91.13
46944;BME280;32678;43.852;25.952;2023-11-18T01:51:46;100260.59;;;10.03;90.60
46944;BME280;32678;43.852;25.952;2023-11-18T01:56:45;100267.97;;;10.17;88.80
46944;BME280;32678;43.852;25.952;2023-11-18T02:01:43;100280.38;;;9.88;90.02
46944;BME280;32678;43.852;25.952;2023-11-18T02:06:40;100274.78;;;9.97;89.54
46944;BME280;32678;43.852;25.952;2023-11-18T02:11:37;100292.69;;;9.86;89.34
46944;BME280;32678;43.852;25.952;2023-11-18T02:16:39;100236.22;;;9.79;90.47
46944;BME280;32678;43.852;25.952;2023-11-18T02:21:36;100221.41;;;9.78;90.44
46944;BME280;32678;43.852;25.952;2023-11-18T02:26:34;100213.59;;;10.00;88.50
46944;BME280;32678;43.852;25.952;2023-11-18T02:31:33;100206.28;;;9.86;88.43
46944;BME280;32678;43.852;25.952;2023-11-18T02:36:35;100220.59;;;9.99;87.80
46944;BME280;32678;43.852;25.952;2023-11-18T02:41:33;100227.47;;;10.02;87.65
46944;BME280;32678;43.852;25.952;2023-11-18T02:46:31;100250.28;;;9.77;88.49
46944;BME280;32678;43.852;25.952;2023-11-18T02:51:28;100260.25;;;9.67;89.79
46944;BME280;32678;43.852;25.952;2023-11-18T02:56:27;100273.22;;;9.70;89.24
46944;BME280;32678;43.852;25.952;2023-11-18T03:01:24;100283.69;;;9.47;90.84
46944;BME280;32678;43.852;25.952;2023-11-18T03:06:22;100285.81;;;9.36;90.25
46944;BME280;32678;43.852;25.952;2023-11-18T03:11:18;100294.03;;;9.25;90.55
46944;BME280;32678;43.852;25.952;2023-11-18T03:16:15;100291.75;;;9.16;91.07
46944;BME280;32678;43.852;25.952;2023-11-18T03:21:13;100288.75;;;9.27;91.01
46944;BME280;32678;43.852;25.952;2023-11-18T03:26:12;100293.50;;;9.16;91.64
46944;BME280;32678;43.852;25.952;2023-11-18T03:31:09;100297.63;;;9.23;91.45
46944;BME280;32678;43.852;25.952;2023-11-18T03:36:07;100292.56;;;9.18;91.20
46944;BME280;32678;43.852;25.952;2023-11-18T03:41:04;100294.50;;;9.11;90.57
46944;BME280;32678;43.852;25.952;2023-11-18T03:46:04;100299.53;;;9.42;89.74
46944;BME280;32678;43.852;25.952;2023-11-18T03:51:01;100279.56;;;9.15;89.54
46944;BME280;32678;43.852;25.952;2023-11-18T03:55:59;100277.16;;;9.34;88.43
46944;BME280;32678;43.852;25.952;2023-11-18T04:00:56;100281.69;;;9.29;89.69
46944;BME280;32678;43.852;25.952;2023-11-18T04:05:55;100281.66;;;9.30;88.47
46944;BME280;32678;43.852;25.952;2023-11-18T04:10:51;100278.16;;;9.30;89.58
46944;BME280;32678;43.852;25.952;2023-11-18T04:15:48;100285.69;;;9.39;87.94
46944;BME280;32678;43.852;25.952;2023-11-18T04:20:45;100269.09;;;9.40;86.89
46944;BME280;32678;43.852;25.952;2023-11-18T04:25:48;100268.09;;;9.67;84.81
46944;BME280;32678;43.852;25.952;2023-11-18T04:30:55;100273.63;;;9.35;83.01
46944;BME280;32678;43.852;25.952;2023-11-18T04:35:52;100264.06;;;9.34;84.39
46944;BME280;32678;43.852;25.952;2023-11-18T04:40:49;100267.50;;;9.36;82.67
46944;BME280;32678;43.852;25.952;2023-11-18T04:45:46;100260.63;;;9.33;81.66
46944;BME280;32678;43.852;25.952;2023-11-18T04:50:43;100266.16;;;9.24;81.19
46944;BME280;32678;43.852;25.952;2023-11-18T04:55:40;100269.56;;;8.77;81.93
46944;BME280;32678;43.852;25.952;2023-11-18T05:00:37;100250.34;;;8.51;82.08
46944;BME280;32678;43.852;25.952;2023-11-18T05:05:34;100259.09;;;8.77;80.32
46944;BME280;32678;43.852;25.952;2023-11-18T05:10:33;100270.50;;;8.48;81.50
46944;BME280;32678;43.852;25.952;2023-11-18T05:15:30;100263.91;;;8.36;81.52
46944;BME280;32678;43.852;25.952;2023-11-18T05:20:29;100282.47;;;7.98;81.93
46944;BME280;32678;43.852;25.952;2023-11-18T05:25:25;100280.81;;;7.95;81.33
46944;BME280;32678;43.852;25.952;2023-11-18T05:30:22;100271.91;;;7.73;80.74
46944;BME280;32678;43.852;25.952;2023-11-18T05:35:19;100286.31;;;7.57;81.28
46944;BME280;32678;43.852;25.952;2023-11-18T05:40:24;100278.75;;;7.77;81.44
46944;BME280;32678;43.852;25.952;2023-11-18T05:45:21;100254.44;;;7.75;81.24
46944;BME280;32678;43.852;25.952;2023-11-18T05:50:23;100271.31;;;7.63;81.03
46944;BME280;32678;43.852;25.952;2023-11-18T05:55:20;100286.31;;;7.57;81.19
46944;BME280;32678;43.852;25.952;2023-11-18T06:00:20;100307.78;;;7.66;81.18
46944;BME280;32678;43.852;25.952;2023-11-18T06:05:28;100324.09;;;7.73;80.07
46944;BME280;32678;43.852;25.952;2023-11-18T06:10:30;100311.78;;;7.47;80.55
46944;BME280;32678;43.852;25.952;2023-11-18T06:15:28;100321.00;;;7.28;80.65
46944;BME280;32678;43.852;25.952;2023-11-18T06:20:25;100311.06;;;7.42;79.57
46944;BME280;32678;43.852;25.952;2023-11-18T06:25:22;100270.53;;;7.29;80.14
46944;BME280;32678;43.852;25.952;2023-11-18T06:30:21;100303.88;;;7.18;79.86
46944;BME280;32678;43.852;25.952;2023-11-18T06:35:19;100308.03;;;7.25;80.10
46944;BME280;32678;43.852;25.952;2023-11-18T06:40:17;100320.31;;;7.20;79.55
46944;BME280;32678;43.852;25.952;2023-11-18T06:45:14;100346.16;;;6.95;80.47
46944;BME280;32678;43.852;25.952;2023-11-18T06:50:14;100349.00;;;6.86;80.02
46944;BME280;32678;43.852;25.952;2023-11-18T06:55:12;100329.16;;;6.80;79.89
46944;BME280;32678;43.852;25.952;2023-11-18T07:00:10;100323.88;;;6.83;79.53
46944;BME280;32678;43.852;25.952;2023-11-18T07:05:07;100318.69;;;6.82;79.38
46944;BME280;32678;43.852;25.952;2023-11-18T07:10:04;100310.03;;;6.81;78.77
46944;BME280;32678;43.852;25.952;2023-11-18T07:15:02;100289.63;;;6.63;78.53
46944;BME280;32678;43.852;25.952;2023-11-18T07:19:59;100304.63;;;7.23;77.06
46944;BME280;32678;43.852;25.952;2023-11-18T07:24:56;100300.00;;;7.00;78.53
46944;BME280;32678;43.852;25.952;2023-11-18T07:29:59;100300.03;;;6.99;78.63
46944;BME280;32678;43.852;25.952;2023-11-18T07:34:56;100287.28;;;6.88;77.54
46944;BME280;32678;43.852;25.952;2023-11-18T07:39:54;100300.34;;;6.86;78.37
46944;BME280;32678;43.852;25.952;2023-11-18T07:44:51;100284.31;;;7.02;76.53
46944;BME280;32678;43.852;25.952;2023-11-18T07:49:47;100303.28;;;7.08;77.38
46944;BME280;32678;43.852;25.952;2023-11-18T07:54:45;100283.06;;;7.16;77.48
46944;BME280;32678;43.852;25.952;2023-11-18T07:59:42;100267.16;;;7.25;76.51
46944;BME280;32678;43.852;25.952;2023-11-18T08:04:41;100299.22;;;7.29;76.81
46944;BME280;32678;43.852;25.952;2023-11-18T08:09:38;100294.78;;;7.63;75.73
46944;BME280;32678;43.852;25.952;2023-11-18T08:14:35;100290.00;;;7.48;76.01
46944;BME280;32678;43.852;25.952;2023-11-18T08:19:42;100297.34;;;7.34;76.24
46944;BME280;32678;43.852;25.952;2023-11-18T08:24:38;100279.75;;;7.42;76.44
46944;BME280;32678;43.852;25.952;2023-11-18T08:29:36;100280.66;;;7.72;75.74
46944;BME280;32678;43.852;25.952;2023-11-18T08:34:34;100290.63;;;7.87;74.19
46944;BME280;32678;43.852;25.952;2023-11-18T08:39:33;100305.63;;;8.10;74.55
46944;BME280;32678;43.852;25.952;2023-11-18T08:44:30;100334.06;;;7.90;74.65
46944;BME280;32678;43.852;25.952;2023-11-18T08:49:29;100336.22;;;7.75;74.91
46944;BME280;32678;43.852;25.952;2023-11-18T08:54:29;100332.75;;;8.04;74.96
46944;BME280;32678;43.852;25.952;2023-11-18T08:59:32;100342.16;;;8.10;74.24
46944;BME280;32678;43.852;25.952;2023-11-18T09:04:30;100308.13;;;7.83;75.31
46944;BME280;32678;43.852;25.952;2023-11-18T09:09:26;100287.03;;;7.91;75.11
46944;BME280;32678;43.852;25.952;2023-11-18T09:14:24;100284.41;;;8.20;74.08
46944;BME280;32678;43.852;25.952;2023-11-18T09:19:25;100269.28;;;8.02;73.58
46944;BME280;32678;43.852;25.952;2023-11-18T09:24:22;100264.06;;;7.73;75.16
46944;BME280;32678;43.852;25.952;2023-11-18T09:29:23;100282.56;;;7.95;74.96
46944;BME280;32678;43.852;25.952;2023-11-18T09:34:20;100286.66;;;8.33;72.89
46944;BME280;32678;43.852;25.952;2023-11-18T09:39:30;100298.41;;;8.18;72.97
46944;BME280;32678;43.852;25.952;2023-11-18T09:44:33;100298.50;;;8.15;74.27
46944;BME280;32678;43.852;25.952;2023-11-18T09:49:34;100289.16;;;8.06;74.50
46944;BME280;32678;43.852;25.952;2023-11-18T09:54:36;100285.31;;;8.19;74.38
46944;BME280;32678;43.852;25.952;2023-11-18T09:59:39;100282.34;;;8.02;75.12
46944;BME280;32678;43.852;25.952;2023-11-18T10:04:43;100275.91;;;7.84;76.59
46944;BME280;32678;43.852;25.952;2023-11-18T10:09:46;100274.38;;;8.07;75.59
46944;BME280;32678;43.852;25.952;2023-11-18T10:14:44;100280.16;;;8.16;75.56
46944;BME280;32678;43.852;25.952;2023-11-18T10:19:51;100277.41;;;8.21;76.07
46944;BME280;32678;43.852;25.952;2023-11-18T10:24:52;100280.69;;;8.55;74.70
46944;BME280;32678;43.852;25.952;2023-11-18T10:29:50;100281.69;;;8.79;74.54
46944;BME280;32678;43.852;25.952;2023-11-18T10:34:52;100272.50;;;8.92;72.69
46944;BME280;32678;43.852;25.952;2023-11-18T10:39:49;100268.84;;;8.98;72.37
46944;BME280;32678;43.852;25.952;2023-11-18T10:44:54;100257.78;;;8.90;73.01
46944;BME280;32678;43.852;25.952;2023-11-18T10:49:53;100257.38;;;9.02;72.28
46944;BME280;32678;43.852;25.952;2023-11-18T10:54:52;100261.09;;;9.20;72.48
46944;BME280;32678;43.852;25.952;2023-11-18T11:00:00;100271.84;;;9.12;72.52
46944;BME280;32678;43.852;25.952;2023-11-18T11:04:57;100271.50;;;8.96;72.96
46944;BME280;32678;43.852;25.952;2023-11-18T11:09:54;100266.69;;;9.09;73.50
46944;BME280;32678;43.852;25.952;2023-11-18T11:14:56;100258.22;;;9.27;73.55
46944;BME280;32678;43.852;25.952;2023-11-18T11:20:01;100257.16;;;9.08;74.75
46944;BME280;32678;43.852;25.952;2023-11-18T11:25:09;100247.22;;;9.18;75.22
46944;BME280;32678;43.852;25.952;2023-11-18T11:30:10;100233.44;;;9.37;75.72
46944;BME280;32678;43.852;25.952;2023-11-18T11:35:19;100230.09;;;9.57;75.34
46944;BME280;32678;43.852;25.952;2023-11-18T11:40:19;100234.56;;;9.53;75.90
46944;BME280;32678;43.852;25.952;2023-11-18T11:45:18;100240.13;;;9.68;76.36
46944;BME280;32678;43.852;25.952;2023-11-18T11:50:21;100236.22;;;9.79;76.10
46944;BME280;32678;43.852;25.952;2023-11-18T11:55:31;100231.97;;;9.77;75.84
46944;BME280;32678;43.852;25.952;2023-11-18T12:00:30;100231.56;;;9.64;77.63
46944;BME280;32678;43.852;25.952;2023-11-18T12:05:31;100239.31;;;9.67;77.82
46944;BME280;32678;43.852;25.952;2023-11-18T12:10:29;100237.44;;;9.71;77.79
46944;BME280;32678;43.852;25.952;2023-11-18T12:20:39;100247.75;;;10.20;77.33
46944;BME280;32678;43.852;25.952;2023-11-18T12:25:38;100241.97;;;10.34;77.33
46944;BME280;32678;43.852;25.952;2023-11-18T12:30:38;100243.00;;;10.30;77.34
46944;BME280;32678;43.852;25.952;2023-11-18T12:35:42;100263.88;;;10.31;77.57
46944;BME280;32678;43.852;25.952;2023-11-18T12:40:50;100264.50;;;10.38;77.68
46944;BME280;32678;43.852;25.952;2023-11-18T12:46:08;100267.25;;;10.35;78.09
46944;BME280;32678;43.852;25.952;2023-11-18T12:51:12;100249.97;;;10.31;78.36
46944;BME280;32678;43.852;25.952;2023-11-18T12:56:15;100275.78;;;10.40;78.71
46944;BME280;32678;43.852;25.952;2023-11-18T13:01:13;100271.94;;;10.27;78.73
46944;BME280;32678;43.852;25.952;2023-11-18T13:06:10;100276.81;;;10.13;80.42
46944;BME280;32678;43.852;25.952;2023-11-18T13:11:08;100284.53;;;9.94;80.85
46944;BME280;32678;43.852;25.952;2023-11-18T13:16:12;100283.97;;;9.86;81.58
46944;BME280;32678;43.852;25.952;2023-11-18T13:21:13;100292.78;;;9.83;82.22
46944;BME280;32678;43.852;25.952;2023-11-18T13:26:10;100304.94;;;9.86;82.71
46944;BME280;32678;43.852;25.952;2023-11-18T13:31:08;100311.25;;;9.80;82.48
46944;BME280;32678;43.852;25.952;2023-11-18T13:36:06;100292.91;;;9.80;82.47
46944;BME280;32678;43.852;25.952;2023-11-18T13:41:04;100310.69;;;9.95;81.78
46944;BME280;32678;43.852;25.952;2023-11-18T13:46:03;100324.19;;;9.83;81.57
46944;BME280;32678;43.852;25.952;2023-11-18T13:51:00;100321.31;;;9.91;81.13
46944;BME280;32678;43.852;25.952;2023-11-18T13:55:58;100322.69;;;10.01;80.91
46944;BME280;32678;43.852;25.952;2023-11-18T14:00:54;100337.31;;;10.07;80.78
46944;BME280;32678;43.852;25.952;2023-11-18T14:05:52;100345.97;;;10.09;79.79
46944;BME280;32678;43.852;25.952;2023-11-18T14:10:54;100348.25;;;10.18;79.53
46944;BME280;32678;43.852;25.952;2023-11-18T14:15:59;100355.91;;;10.24;79.33
46944;BME280;32678;43.852;25.952;2023-11-18T14:20:57;100370.75;;;10.00;78.15
46944;BME280;32678;43.852;25.952;2023-11-18T14:25:54;100384.41;;;10.08;78.56
46944;BME280;32678;43.852;25.952;2023-11-18T14:30:51;100394.88;;;10.08;78.28
46944;BME280;32678;43.852;25.952;2023-11-18T14:35:48;100407.44;;;9.98;79.00
46944;BME280;32678;43.852;25.952;2023-11-18T14:40:47;100412.63;;;10.00;78.97
46944;BME280;32678;43.852;25.952;2023-11-18T14:45:44;100413.75;;;9.93;78.55
46944;BME280;32678;43.852;25.952;2023-11-18T14:50:44;100410.59;;;10.08;78.92
46944;BME280;32678;43.852;25.952;2023-11-18T14:55:41;100418.91;;;10.21;78.83
46944;BME280;32678;43.852;25.952;2023-11-18T15:00:45;100416.22;;;10.22;78.86
46944;BME280;32678;43.852;25.952;2023-11-18T15:05:46;100422.66;;;10.37;78.88
46944;BME280;32678;43.852;25.952;2023-11-18T15:10:43;100436.22;;;10.25;79.54
46944;BME280;32678;43.852;25.952;2023-11-18T15:15:41;100430.75;;;10.31;79.40
46944;BME280;32678;43.852;25.952;2023-11-18T15:20:40;100439.06;;;10.42;79.40
46944;BME280;32678;43.852;25.952;2023-11-18T15:25:42;100442.19;;;10.28;79.40
46944;BME280;32678;43.852;25.952;2023-11-18T15:30:39;100463.72;;;10.36;79.37
46944;BME280;32678;43.852;25.952;2023-11-18T15:35:37;100464.34;;;10.43;79.25
46944;BME280;32678;43.852;25.952;2023-11-18T15:40:34;100471.41;;;10.41;79.01
46944;BME280;32678;43.852;25.952;2023-11-18T15:45:32;100481.13;;;10.39;78.68
46944;BME280;32678;43.852;25.952;2023-11-18T15:50:29;100481.81;;;10.44;78.50
46944;BME280;32678;43.852;25.952;2023-11-18T15:55:26;100488.84;;;10.42;77.94
46944;BME280;32678;43.852;25.952;2023-11-18T16:00:24;100500.38;;;10.38;77.73
46944;BME280;32678;43.852;25.952;2023-11-18T16:05:22;100503.13;;;10.09;77.03
46944;BME280;32678;43.852;25.952;2023-11-18T16:10:20;100510.03;;;9.86;76.13
46944;BME280;32678;43.852;25.952;2023-11-18T16:15:18;100519.72;;;9.83;76.38
46944;BME280;32678;43.852;25.952;2023-11-18T16:20:16;100534.28;;;9.65;77.21
46944;BME280;32678;43.852;25.952;2023-11-18T16:25:14;100537.25;;;9.54;77.99
46944;BME280;32678;43.852;25.952;2023-11-18T16:30:16;100551.59;;;9.43;78.20
46944;BME280;32678;43.852;25.952;2023-11-18T16:35:14;100561.53;;;9.32;77.59
46944;BME280;32678;43.852;25.952;2023-11-18T16:40:12;100561.09;;;9.18;77.75
46944;BME280;32678;43.852;25.952;2023-11-18T16:45:10;100561.59;;;9.01;77.16
46944;BME280;32678;43.852;25.952;2023-11-18T16:50:07;100575.50;;;9.03;76.39
46944;BME280;32678;43.852;25.952;2023-11-18T16:55:05;100586.00;;;9.01;76.74
46944;BME280;32678;43.852;25.952;2023-11-18T17:00:03;100566.09;;;8.65;76.34
46944;BME280;32678;43.852;25.952;2023-11-18T17:05:03;100593.78;;;8.74;76.17
46944;BME280;32678;43.852;25.952;2023-11-18T17:10:03;100602.06;;;8.57;76.46
46944;BME280;32678;43.852;25.952;2023-11-18T17:15:04;100605.63;;;8.54;77.71
46944;BME280;32678;43.852;25.952;2023-11-18T17:20:00;100601.16;;;8.58;78.83
46944;BME280;32678;43.852;25.952;2023-11-18T17:24:57;100596.88;;;8.55;78.41
46944;BME280;32678;43.852;25.952;2023-11-18T17:29:54;100595.59;;;8.70;78.95
46944;BME280;32678;43.852;25.952;2023-11-18T17:34:52;100607.44;;;8.83;78.37
46944;BME280;32678;43.852;25.952;2023-11-18T17:39:49;100611.41;;;8.96;79.07
46944;BME280;32678;43.852;25.952;2023-11-18T17:44:46;100617.03;;;9.13;79.26
46944;BME280;32678;43.852;25.952;2023-11-18T17:49:43;100632.72;;;8.83;78.71
46944;BME280;32678;43.852;25.952;2023-11-18T17:54:42;100632.88;;;8.77;78.05
46944;BME280;32678;43.852;25.952;2023-11-18T17:59:39;100638.63;;;8.58;77.92
46944;BME280;32678;43.852;25.952;2023-11-18T18:04:36;100650.69;;;8.28;77.59
46944;BME280;32678;43.852;25.952;2023-11-18T18:09:33;100662.44;;;8.11;78.52
46944;BME280;32678;43.852;25.952;2023-11-18T18:14:30;100663.00;;;8.23;78.24
46944;BME280;32678;43.852;25.952;2023-11-18T18:19:27;100671.50;;;8.33;78.40
46944;BME280;32678;43.852;25.952;2023-11-18T18:24:24;100681.16;;;8.28;78.88
46944;BME280;32678;43.852;25.952;2023-11-18T18:29:20;100680.72;;;8.46;79.26
46944;BME280;32678;43.852;25.952;2023-11-18T18:34:21;100691.41;;;8.37;78.46
46944;BME280;32678;43.852;25.952;2023-11-18T18:39:17;100710.94;;;8.21;79.04
46944;BME280;32678;43.852;25.952;2023-11-18T18:44:14;100708.53;;;8.12;79.13
46944;BME280;32678;43.852;25.952;2023-11-18T18:49:11;100716.84;;;8.31;79.32
46944;BME280;32678;43.852;25.952;2023-11-18T18:54:08;100727.00;;;8.41;79.35
46944;BME280;32678;43.852;25.952;2023-11-18T18:59:07;100723.47;;;8.44;79.07
46944;BME280;32678;43.852;25.952;2023-11-18T19:04:06;100732.88;;;8.51;79.10
46944;BME280;32678;43.852;25.952;2023-11-18T19:09:04;100737.69;;;8.67;79.05
46944;BME280;32678;43.852;25.952;2023-11-18T19:14:01;100727.47;;;8.58;78.33
46944;BME280;32678;43.852;25.952;2023-11-18T19:18:58;100757.63;;;8.72;77.99
46944;BME280;32678;43.852;25.952;2023-11-18T19:23:55;100771.31;;;8.81;77.96
46944;BME280;32678;43.852;25.952;2023-11-18T19:28:51;100766.09;;;8.81;77.48
46944;BME280;32678;43.852;25.952;2023-11-18T19:33:49;100773.00;;;8.84;77.23
46944;BME280;32678;43.852;25.952;2023-11-18T19:38:46;100774.88;;;8.79;77.80
46944;BME280;32678;43.852;25.952;2023-11-18T19:43:42;100760.88;;;8.80;77.75
46944;BME280;32678;43.852;25.952;2023-11-18T19:48:39;100778.00;;;8.93;77.52
46944;BME280;32678;43.852;25.952;2023-11-18T19:53:37;100785.16;;;8.85;77.12
46944;BME280;32678;43.852;25.952;2023-11-18T19:58:33;100788.81;;;8.79;77.51
46944;BME280;32678;43.852;25.952;2023-11-18T20:03:31;100790.19;;;8.94;77.43
46944;BME280;32678;43.852;25.952;2023-11-18T20:08:27;100800.34;;;9.04;77.03
46944;BME280;32678;43.852;25.952;2023-11-18T20:13:27;100781.34;;;8.98;77.40
46944;BME280;32678;43.852;25.952;2023-11-18T20:18:24;100803.53;;;9.16;77.68
46944;BME280;32678;43.852;25.952;2023-11-18T20:23:24;100815.72;;;9.17;77.85
46944;BME280;32678;43.852;25.952;2023-11-18T20:28:22;100816.38;;;9.25;78.06
46944;BME280;32678;43.852;25.952;2023-11-18T20:33:19;100820.69;;;9.27;77.54
46944;BME280;32678;43.852;25.952;2023-11-18T20:38:19;100826.66;;;9.32;77.69
46944;BME280;32678;43.852;25.952;2023-11-18T20:43:16;100822.47;;;9.25;77.27
46944;BME280;32678;43.852;25.952;2023-11-18T20:48:13;100834.78;;;9.22;77.27
46944;BME280;32678;43.852;25.952;2023-11-18T20:53:10;100829.81;;;9.11;77.69
46944;BME280;32678;43.852;25.952;2023-11-18T20:58:07;100820.19;;;9.13;78.00
46944;BME280;32678;43.852;25.952;2023-11-18T21:03:04;100802.91;;;9.06;77.19
46944;BME280;32678;43.852;25.952;2023-11-18T21:08:02;100831.38;;;9.18;77.14
46944;BME280;32678;43.852;25.952;2023-11-18T21:13:00;100846.03;;;9.24;76.29
46944;BME280;32678;43.852;25.952;2023-11-18T21:17:57;100836.41;;;9.26;75.44
46944;BME280;32678;43.852;25.952;2023-11-18T21:22:54;100839.84;;;9.28;74.14
46944;BME280;32678;43.852;25.952;2023-11-18T21:27:52;100848.38;;;9.34;74.57
46944;BME280;32678;43.852;25.952;2023-11-18T21:32:49;100848.97;;;9.45;74.74
46944;BME280;32678;43.852;25.952;2023-11-18T21:37:47;100850.19;;;9.32;75.06
46944;BME280;32678;43.852;25.952;2023-11-18T21:42:44;100849.97;;;9.40;75.99
46944;BME280;32678;43.852;25.952;2023-11-18T21:47:41;100858.69;;;9.40;76.41
46944;BME280;32678;43.852;25.952;2023-11-18T21:52:41;100879.50;;;9.45;76.60
46944;BME280;32678;43.852;25.952;2023-11-18T21:57:37;100880.50;;;9.05;76.71
46944;BME280;32678;43.852;25.952;2023-11-18T22:02:34;100874.16;;;9.16;75.46
46944;BME280;32678;43.852;25.952;2023-11-18T22:07:31;100890.16;;;8.66;76.76
46944;BME280;32678;43.852;25.952;2023-11-18T22:12:29;100898.59;;;8.79;75.69
46944;BME280;32678;43.852;25.952;2023-11-18T22:17:26;100888.16;;;8.79;74.24
46944;BME280;32678;43.852;25.952;2023-11-18T22:22:23;100896.78;;;8.83;74.08
46944;BME280;32678;43.852;25.952;2023-11-18T22:27:30;100900.91;;;8.91;73.52
46944;BME280;32678;43.852;25.952;2023-11-18T22:32:29;100905.00;;;9.03;73.71
46944;BME280;32678;43.852;25.952;2023-11-18T22:37:26;100900.53;;;9.06;72.33
46944;BME280;32678;43.852;25.952;2023-11-18T22:42:23;100895.19;;;9.11;72.47
46944;BME280;32678;43.852;25.952;2023-11-18T22:47:21;100892.22;;;8.91;72.75
46944;BME280;32678;43.852;25.952;2023-11-18T22:52:18;100889.91;;;8.79;73.22
46944;BME280;32678;43.852;25.952;2023-11-18T22:57:15;100886.66;;;8.67;73.25
46944;BME280;32678;43.852;25.952;2023-11-18T23:02:12;100887.41;;;8.74;73.37
46944;BME280;32678;43.852;25.952;2023-11-18T23:07:12;100896.78;;;8.81;72.88
46944;BME280;32678;43.852;25.952;2023-11-18T23:12:13;100906.56;;;8.75;71.93
46944;BME280;32678;43.852;25.952;2023-11-18T23:17:10;100901.91;;;8.86;71.92
46944;BME280;32678;43.852;25.952;2023-11-18T23:22:06;100904.41;;;8.90;71.90
46944;BME280;32678;43.852;25.952;2023-11-18T23:27:05;100901.31;;;9.10;71.06
46944;BME280;32678;43.852;25.952;2023-11-18T23:32:03;100909.00;;;9.18;70.21
46944;BME280;32678;43.852;25.952;2023-11-18T23:37:01;100930.25;;;9.39;69.75
46944;BME280;32678;43.852;25.952;2023-11-18T23:41:59;100930.88;;;9.49;69.72
46944;BME280;32678;43.852;25.952;2023-11-18T23:46:57;100939.56;;;9.49;69.71
46944;BME280;32678;43.852;25.952;2023-11-18T23:51:54;100943.41;;;9.70;70.22
46944;BME280;32678;43.852;25.952;2023-11-18T23:56:50;100942.75;;;9.94;69.96
